sensor_id;sensor_type;location;lat;lon;timestamp;pressure;altitude;pressure_sealevel;temperature;humidity
62600;BME280;48671;48.922;2.346;2023-02-16T00:01:33;102412.91;;;9.75;58.51
62600;BME280;48671;48.922;2.346;2023-02-16T00:03:59;102406.03;;;9.64;58.71
62600;BME280;48671;48.922;2.346;2023-02-16T00:06:26;102411.19;;;9.73;58.75
62600;BME280;48671;48.922;2.346;2023-02-16T00:08:54;102406.88;;;9.70;58.58
62600;BME280;48671;48.922;2.346;2023-02-16T00:11:22;102423.25;;;9.80;58.72
62600;BME280;48671;48.922;2.346;2023-02-16T00:14:08;102399.13;;;9.63;58.74
62600;BME280;48671;48.922;2.346;2023-02-16T00:16:34;102393.94;;;9.61;58.70
62600;BME280;48671;48.922;2.346;2023-02-16T00:19:00;102411.19;;;9.73;58.88
62600;BME280;48671;48.922;2.346;2023-02-16T00:21:26;102420.66;;;9.81;58.50
62600;BME280;48671;48.922;2.346;2023-02-16T00:23:51;102388.72;;;9.64;58.85
62600;BME280;48671;48.922;2.346;2023-02-16T00:26:19;102377.47;;;9.60;58.78
62600;BME280;48671;48.922;2.346;2023-02-16T00:28:49;102397.34;;;9.68;58.76
62600;BME280;48671;48.922;2.346;2023-02-16T00:31:17;102386.16;;;9.63;58.63
62600;BME280;48671;48.922;2.346;2023-02-16T00:33:43;102390.44;;;9.67;58.68
62600;BME280;48671;48.922;2.346;2023-02-16T00:36:09;102400.78;;;9.73;58.45
62600;BME280;48671;48.922;2.346;2023-02-16T00:38:34;102391.28;;;9.69;58.61
62600;BME280;48671;48.922;2.346;2023-02-16T00:41:00;102393.03;;;9.68;58.52
62600;BME280;48671;48.922;2.346;2023-02-16T00:43:30;102392.97;;;9.73;58.78
62600;BME280;48671;48.922;2.346;2023-02-16T00:45:56;102371.34;;;9.68;58.38
62600;BME280;48671;48.922;2.346;2023-02-16T00:48:22;102378.31;;;9.69;58.43
62600;BME280;48671;48.922;2.346;2023-02-16T00:50:48;102374.00;;;9.63;58.40
62600;BME280;48671;48.922;2.346;2023-02-16T00:53:14;102388.66;;;9.70;58.51
62600;BME280;48671;48.922;2.346;2023-02-16T00:55:41;102399.03;;;9.73;58.55
62600;BME280;48671;48.922;2.346;2023-02-16T00:58:28;102365.38;;;9.58;58.30
62600;BME280;48671;48.922;2.346;2023-02-16T01:00:59;102368.91;;;9.51;58.50
62600;BME280;48671;48.922;2.346;2023-02-16T01:03:28;102388.81;;;9.55;58.87
62600;BME280;48671;48.922;2.346;2023-02-16T01:05:54;102367.25;;;9.42;58.73
62600;BME280;48671;48.922;2.346;2023-02-16T01:08:39;102371.59;;;9.40;58.95
62600;BME280;48671;48.922;2.346;2023-02-16T01:11:23;102375.09;;;9.31;58.86
62600;BME280;48671;48.922;2.346;2023-02-16T01:13:51;102362.13;;;9.31;58.83
62600;BME280;48671;48.922;2.346;2023-02-16T01:16:25;102390.59;;;9.44;58.65
62600;BME280;48671;48.922;2.346;2023-02-16T01:18:52;102357.88;;;9.23;58.95
62600;BME280;48671;48.922;2.346;2023-02-16T01:21:17;102372.53;;;9.28;59.30
62600;BME280;48671;48.922;2.346;2023-02-16T01:23:43;102356.19;;;9.16;59.21
62600;BME280;48671;48.922;2.346;2023-02-16T01:26:13;102357.06;;;9.11;59.37
62600;BME280;48671;48.922;2.346;2023-02-16T01:28:39;102358.84;;;9.06;59.16
62600;BME280;48671;48.922;2.346;2023-02-16T01:31:04;102354.50;;;9.05;59.50
62600;BME280;48671;48.922;2.346;2023-02-16T01:33:30;102364.00;;;9.08;59.17
62600;BME280;48671;48.922;2.346;2023-02-16T01:35:56;102378.69;;;9.17;59.61
62600;BME280;48671;48.922;2.346;2023-02-16T01:38:25;102379.50;;;9.19;59.39
62600;BME280;48671;48.922;2.346;2023-02-16T01:40:59;102362.25;;;9.11;59.48
62600;BME280;48671;48.922;2.346;2023-02-16T01:46:04;102364.03;;;9.06;59.54
62600;BME280;48671;48.922;2.346;2023-02-16T01:48:32;102357.09;;;9.02;59.44
62600;BME280;48671;48.922;2.346;2023-02-16T01:51:19;102341.56;;;8.99;59.74
62600;BME280;48671;48.922;2.346;2023-02-16T01:53:50;102336.38;;;8.98;60.16
62600;BME280;48671;48.922;2.346;2023-02-16T01:56:44;102353.59;;;9.14;59.98
62600;BME280;48671;48.922;2.346;2023-02-16T01:59:58;102329.47;;;8.92;59.72
62600;BME280;48671;48.922;2.346;2023-02-16T02:02:35;102345.88;;;9.02;59.97
62600;BME280;48671;48.922;2.346;2023-02-16T02:05:24;102353.69;;;8.96;60.21
62600;BME280;48671;48.922;2.346;2023-02-16T02:15:43;102313.16;;;8.72;60.32
62600;BME280;48671;48.922;2.346;2023-02-16T02:18:08;102306.28;;;8.64;59.92
62600;BME280;48671;48.922;2.346;2023-02-16T02:20:56;102315.78;;;8.70;60.27
62600;BME280;48671;48.922;2.346;2023-02-16T02:26:41;102325.28;;;8.68;60.45
62600;BME280;48671;48.922;2.346;2023-02-16T02:29:24;102328.78;;;8.62;61.01
62600;BME280;48671;48.922;2.346;2023-02-16T02:32:14;102301.16;;;8.49;61.04
62600;BME280;48671;48.922;2.346;2023-02-16T02:35:01;102326.22;;;8.55;60.88
62600;BME280;48671;48.922;2.346;2023-02-16T02:38:02;102312.41;;;8.48;60.85
62600;BME280;48671;48.922;2.346;2023-02-16T02:43:34;102340.94;;;8.51;60.98
62600;BME280;48671;48.922;2.346;2023-02-16T02:46:09;102329.72;;;8.44;61.01
62600;BME280;48671;48.922;2.346;2023-02-16T02:48:35;102302.94;;;8.33;61.27
62600;BME280;48671;48.922;2.346;2023-02-16T02:54:06;102306.38;;;8.43;61.17
62600;BME280;48671;48.922;2.346;2023-02-16T02:56:59;102310.75;;;8.38;61.11
62600;BME280;48671;48.922;2.346;2023-02-16T02:59:51;102296.06;;;8.25;61.38
62600;BME280;48671;48.922;2.346;2023-02-16T03:02:49;102302.94;;;8.27;61.22
62600;BME280;48671;48.922;2.346;2023-02-16T03:05:21;102278.84;;;8.11;61.52
62600;BME280;48671;48.922;2.346;2023-02-16T03:07:53;102296.09;;;8.18;61.73
62600;BME280;48671;48.922;2.346;2023-02-16T03:10:26;102282.28;;;8.09;61.77
62600;BME280;48671;48.922;2.346;2023-02-16T03:13:25;102284.88;;;8.15;61.78
62600;BME280;48671;48.922;2.346;2023-02-16T03:15:55;102284.88;;;8.09;61.56
62600;BME280;48671;48.922;2.346;2023-02-16T03:18:24;102296.91;;;8.20;62.39
62600;BME280;48671;48.922;2.346;2023-02-16T03:21:13;102278.84;;;8.11;61.84
62600;BME280;48671;48.922;2.346;2023-02-16T03:24:02;102293.50;;;8.18;62.13
62600;BME280;48671;48.922;2.346;2023-02-16T03:26:48;102273.66;;;8.08;62.41
62600;BME280;48671;48.922;2.346;2023-02-16T03:29:36;102290.06;;;8.15;61.99
62600;BME280;48671;48.922;2.346;2023-02-16T03:32:04;102300.41;;;8.16;62.40
62600;BME280;48671;48.922;2.346;2023-02-16T03:34:31;102301.25;;;8.23;62.17
62600;BME280;48671;48.922;2.346;2023-02-16T03:37:02;102276.25;;;8.02;62.42
62600;BME280;48671;48.922;2.346;2023-02-16T03:39:30;102281.44;;;8.04;61.91
62600;BME280;48671;48.922;2.346;2023-02-16T03:41:56;102309.91;;;8.16;62.37
62600;BME280;48671;48.922;2.346;2023-02-16T03:44:23;102291.81;;;8.01;61.94
62600;BME280;48671;48.922;2.346;2023-02-16T03:46:51;102302.16;;;8.10;61.96
62600;BME280;48671;48.922;2.346;2023-02-16T03:49:18;102307.34;;;8.08;62.43
62600;BME280;48671;48.922;2.346;2023-02-16T03:51:43;102306.47;;;8.11;62.41
62600;BME280;48671;48.922;2.346;2023-02-16T03:54:10;102298.72;;;7.97;62.18
62600;BME280;48671;48.922;2.346;2023-02-16T06:14:57;102313.47;;;7.75;64.30
62600;BME280;48671;48.922;2.346;2023-02-16T06:17:55;102313.47;;;7.75;64.52
62600;BME280;48671;48.922;2.346;2023-02-16T08:00:06;102390.19;;;8.63;67.08
62600;BME280;48671;48.922;2.346;2023-02-16T08:02:32;102395.34;;;8.68;66.97
62600;BME280;48671;48.922;2.346;2023-02-16T08:04:59;102396.22;;;8.65;66.86
62600;BME280;48671;48.922;2.346;2023-02-16T08:07:24;102375.50;;;8.59;67.37
62600;BME280;48671;48.922;2.346;2023-02-16T08:09:50;102405.72;;;8.74;67.32
62600;BME280;48671;48.922;2.346;2023-02-16T08:12:16;102399.66;;;8.74;67.62
62600;BME280;48671;48.922;2.346;2023-02-16T08:14:42;102385.00;;;8.65;67.09
62600;BME280;48671;48.922;2.346;2023-02-16T08:17:07;102389.28;;;8.69;67.04
62600;BME280;48671;48.922;2.346;2023-02-16T08:19:33;102405.69;;;8.83;66.80
62600;BME280;48671;48.922;2.346;2023-02-16T08:22:00;102413.44;;;8.85;66.92
62600;BME280;48671;48.922;2.346;2023-02-16T08:24:26;102395.31;;;8.76;67.06
62600;BME280;48671;48.922;2.346;2023-02-16T08:29:30;102405.66;;;8.86;66.43
62600;BME280;48671;48.922;2.346;2023-02-16T08:31:55;102379.75;;;8.76;66.67
62600;BME280;48671;48.922;2.346;2023-02-16T08:34:22;102400.44;;;8.91;66.32
62600;BME280;48671;48.922;2.346;2023-02-16T08:36:51;102382.28;;;8.91;66.54
62600;BME280;48671;48.922;2.346;2023-02-16T08:39:20;102381.41;;;8.94;66.96
62600;BME280;48671;48.922;2.346;2023-02-16T08:41:47;102382.25;;;8.97;67.50
62600;BME280;48671;48.922;2.346;2023-02-16T08:44:14;102368.44;;;8.89;66.88
62600;BME280;48671;48.922;2.346;2023-02-16T08:46:42;102376.19;;;8.97;67.74
62600;BME280;48671;48.922;2.346;2023-02-16T08:49:09;102362.41;;;8.85;67.58
62600;BME280;48671;48.922;2.346;2023-02-16T08:51:37;102364.13;;;8.88;67.37
62600;BME280;48671;48.922;2.346;2023-02-16T08:54:05;102365.00;;;8.90;67.07
62600;BME280;48671;48.922;2.346;2023-02-16T08:56:35;102383.91;;;9.07;66.86
62600;BME280;48671;48.922;2.346;2023-02-16T08:59:00;102385.66;;;9.07;67.76
62600;BME280;48671;48.922;2.346;2023-02-16T09:01:26;102381.31;;;9.07;67.70
62600;BME280;48671;48.922;2.346;2023-02-16T09:03:52;102383.06;;;9.02;67.71
62600;BME280;48671;48.922;2.346;2023-02-16T09:06:19;102365.84;;;8.90;67.26
62600;BME280;48671;48.922;2.346;2023-02-16T09:08:53;102409.88;;;9.10;67.42
62600;BME280;48671;48.922;2.346;2023-02-16T09:11:20;102400.41;;;9.00;67.35
62600;BME280;48671;48.922;2.346;2023-02-16T09:13:46;102408.19;;;9.03;67.38
62600;BME280;48671;48.922;2.346;2023-02-16T09:16:16;102422.78;;;9.18;67.49
62600;BME280;48671;48.922;2.346;2023-02-16T09:18:42;102396.03;;;9.08;67.16
62600;BME280;48671;48.922;2.346;2023-02-16T09:21:15;102418.47;;;9.19;67.55
62600;BME280;48671;48.922;2.346;2023-02-16T09:23:43;102409.84;;;9.12;67.09
62600;BME280;48671;48.922;2.346;2023-02-16T09:26:13;102438.34;;;9.29;67.18
62600;BME280;48671;48.922;2.346;2023-02-16T09:28:40;102425.34;;;9.27;67.06
62600;BME280;48671;48.922;2.346;2023-02-16T09:31:10;102435.66;;;9.43;66.89
62600;BME280;48671;48.922;2.346;2023-02-16T09:33:36;102430.44;;;9.46;67.10
62600;BME280;48671;48.922;2.346;2023-02-16T09:36:04;102435.59;;;9.52;66.78
62600;BME280;48671;48.922;2.346;2023-02-16T09:38:31;102426.06;;;9.51;66.95
62600;BME280;48671;48.922;2.346;2023-02-16T09:40:56;102411.41;;;9.42;67.50
62600;BME280;48671;48.922;2.346;2023-02-16T09:45:59;102405.25;;;9.55;66.73
62600;BME280;48671;48.922;2.346;2023-02-16T09:48:55;102394.91;;;9.48;67.44
62600;BME280;48671;48.922;2.346;2023-02-16T09:51:31;102410.50;;;9.49;67.11
62600;BME280;48671;48.922;2.346;2023-02-16T09:54:21;102418.25;;;9.55;66.82
62600;BME280;48671;48.922;2.346;2023-02-16T09:57:07;102413.00;;;9.65;66.85
62600;BME280;48671;48.922;2.346;2023-02-16T10:02:44;102429.28;;;9.83;67.19
62600;BME280;48671;48.922;2.346;2023-02-16T10:05:18;102431.81;;;9.93;67.00
62600;BME280;48671;48.922;2.346;2023-02-16T10:08:04;102436.94;;;10.02;67.51
62600;BME280;48671;48.922;2.346;2023-02-16T10:13:14;102427.28;;;10.13;66.70
62600;BME280;48671;48.922;2.346;2023-02-16T10:15:43;102417.69;;;10.20;66.65
62600;BME280;48671;48.922;2.346;2023-02-16T10:18:19;102428.91;;;10.26;66.50
62600;BME280;48671;48.922;2.346;2023-02-16T10:20:48;102422.84;;;10.26;66.91
62600;BME280;48671;48.922;2.346;2023-02-16T10:23:30;102426.28;;;10.31;67.17
62600;BME280;48671;48.922;2.346;2023-02-16T10:26:32;102437.53;;;10.35;66.64
62600;BME280;48671;48.922;2.346;2023-02-16T10:29:05;102433.19;;;10.37;66.60
62600;BME280;48671;48.922;2.346;2023-02-16T10:42:49;102434.78;;;10.50;67.55
62600;BME280;48671;48.922;2.346;2023-02-16T10:45:45;102431.28;;;10.49;67.64
62600;BME280;48671;48.922;2.346;2023-02-16T10:48:12;102433.00;;;10.53;67.27
62600;BME280;48671;48.922;2.346;2023-02-16T10:50:40;102425.09;;;10.61;67.05
62600;BME280;48671;48.922;2.346;2023-02-16T10:53:20;102428.47;;;10.69;67.12
62600;BME280;48671;48.922;2.346;2023-02-16T10:55:46;102430.03;;;10.84;66.69
62600;BME280;48671;48.922;2.346;2023-02-16T10:58:26;102435.97;;;10.95;66.59
62600;BME280;48671;48.922;2.346;2023-02-16T11:03:47;102429.53;;;11.21;66.71
62600;BME280;48671;48.922;2.346;2023-02-16T11:06:22;102442.66;;;11.73;65.81
62600;BME280;48671;48.922;2.346;2023-02-16T11:08:51;102446.50;;;12.05;65.04
62600;BME280;48671;48.922;2.346;2023-02-16T11:11:19;102425.22;;;12.28;64.00
62600;BME280;48671;48.922;2.346;2023-02-16T11:13:47;102412.78;;;12.43;63.74
62600;BME280;48671;48.922;2.346;2023-02-16T11:16:21;102422.56;;;12.75;63.15
62600;BME280;48671;48.922;2.346;2023-02-16T11:18:57;102413.19;;;13.08;61.94
62600;BME280;48671;48.922;2.346;2023-02-16T11:21:48;102417.75;;;13.39;61.79
62600;BME280;48671;48.922;2.346;2023-02-16T11:24:32;102405.09;;;13.57;61.71
62600;BME280;48671;48.922;2.346;2023-02-16T11:27:18;102410.91;;;13.69;60.99
62600;BME280;48671;48.922;2.346;2023-02-16T11:29:43;102415.16;;;13.73;60.89
62600;BME280;48671;48.922;2.346;2023-02-16T11:32:11;102413.09;;;13.87;60.59
62600;BME280;48671;48.922;2.346;2023-02-16T11:34:49;102401.41;;;13.99;60.56
62600;BME280;48671;48.922;2.346;2023-02-16T11:39:59;102377.75;;;13.71;60.30
62600;BME280;48671;48.922;2.346;2023-02-16T11:44:53;102393.78;;;13.57;61.60
62600;BME280;48671;48.922;2.346;2023-02-16T11:49:47;102381.84;;;13.81;61.03
62600;BME280;48671;48.922;2.346;2023-02-16T11:52:26;102381.56;;;13.92;61.46
62600;BME280;48671;48.922;2.346;2023-02-16T11:54:55;102369.78;;;14.08;61.29
62600;BME280;48671;48.922;2.346;2023-02-16T11:57:32;102375.72;;;14.46;60.51
62600;BME280;48671;48.922;2.346;2023-02-16T11:59:59;102367.25;;;14.67;59.31
62600;BME280;48671;48.922;2.346;2023-02-16T12:07:42;102365.50;;;14.68;59.98
62600;BME280;48671;48.922;2.346;2023-02-16T12:10:18;102366.53;;;14.92;59.40
62600;BME280;48671;48.922;2.346;2023-02-16T12:16:05;102372.34;;;15.30;58.01
62600;BME280;48671;48.922;2.346;2023-02-16T12:22:14;102358.13;;;15.63;57.01
62600;BME280;48671;48.922;2.346;2023-02-16T12:25:48;102355.44;;;15.91;55.92
62600;BME280;48671;48.922;2.346;2023-02-16T12:30:43;102362.91;;;16.27;55.86
62600;BME280;48671;48.922;2.346;2023-02-16T12:33:25;102353.16;;;16.31;54.79
62600;BME280;48671;48.922;2.346;2023-02-16T12:36:20;102342.66;;;16.31;53.22
62600;BME280;48671;48.922;2.346;2023-02-16T12:39:01;102338.88;;;16.14;52.91
62600;BME280;48671;48.922;2.346;2023-02-16T12:44:43;102332.13;;;15.82;51.56
62600;BME280;48671;48.922;2.346;2023-02-16T12:47:16;102335.50;;;15.59;53.56
62600;BME280;48671;48.922;2.346;2023-02-16T12:49:54;102327.09;;;15.50;54.43
62600;BME280;48671;48.922;2.346;2023-02-16T12:54:56;102328.47;;;15.35;53.37
62600;BME280;48671;48.922;2.346;2023-02-16T12:57:25;102345.03;;;15.37;54.26
62600;BME280;48671;48.922;2.346;2023-02-16T12:59:56;102325.94;;;15.32;53.35
62600;BME280;48671;48.922;2.346;2023-02-16T13:02:31;102319.19;;;15.25;51.03
62600;BME280;48671;48.922;2.346;2023-02-16T13:05:08;102327.81;;;15.28;50.90
62600;BME280;48671;48.922;2.346;2023-02-16T13:07:44;102329.72;;;15.23;48.24
62600;BME280;48671;48.922;2.346;2023-02-16T13:10:35;102332.50;;;15.18;46.49
62600;BME280;48671;48.922;2.346;2023-02-16T13:13:11;102328.31;;;15.13;47.04
62600;BME280;48671;48.922;2.346;2023-02-16T13:16:07;102310.91;;;15.10;45.13
62600;BME280;48671;48.922;2.346;2023-02-16T13:18:35;102326.78;;;15.34;46.29
62600;BME280;48671;48.922;2.346;2023-02-16T13:21:14;102304.59;;;15.42;48.23
62600;BME280;48671;48.922;2.346;2023-02-16T13:37:40;102307.13;;;16.44;44.31
62600;BME280;48671;48.922;2.346;2023-02-16T13:40:29;102296.22;;;16.78;45.93
62600;BME280;48671;48.922;2.346;2023-02-16T13:45:48;102281.59;;;16.93;45.07
62600;BME280;48671;48.922;2.346;2023-02-16T13:48:23;102278.66;;;17.01;44.57
62600;BME280;48671;48.922;2.346;2023-02-16T13:50:58;102278.09;;;17.15;44.24
62600;BME280;48671;48.922;2.346;2023-02-16T13:53:28;102269.53;;;17.09;45.25
62600;BME280;48671;48.922;2.346;2023-02-16T13:56:34;102264.56;;;17.24;43.77
62600;BME280;48671;48.922;2.346;2023-02-16T14:01:44;102259.22;;;17.25;44.52
62600;BME280;48671;48.922;2.346;2023-02-16T14:07:33;102244.06;;;17.71;44.58
62600;BME280;48671;48.922;2.346;2023-02-16T14:14:43;102248.91;;;18.77;40.35
62600;BME280;48671;48.922;2.346;2023-02-16T14:19:38;102264.50;;;18.81;41.28
62600;BME280;48671;48.922;2.346;2023-02-16T14:22:17;102267.72;;;18.50;41.63
62600;BME280;48671;48.922;2.346;2023-02-16T14:24:51;102253.78;;;18.10;39.59
62600;BME280;48671;48.922;2.346;2023-02-16T14:27:42;102257.19;;;17.93;41.79
62600;BME280;48671;48.922;2.346;2023-02-16T14:30:21;102255.38;;;17.94;41.79
62600;BME280;48671;48.922;2.346;2023-02-16T14:32:55;102258.69;;;17.78;41.67
62600;BME280;48671;48.922;2.346;2023-02-16T14:35:28;102265.06;;;17.52;42.96
62600;BME280;48671;48.922;2.346;2023-02-16T14:38:01;102256.72;;;17.22;43.34
62600;BME280;48671;48.922;2.346;2023-02-16T14:43:03;102246.41;;;16.75;44.37
62600;BME280;48671;48.922;2.346;2023-02-16T14:48:02;102250.44;;;16.60;44.98
62600;BME280;48671;48.922;2.346;2023-02-16T14:54:23;102258.72;;;16.28;46.77
62600;BME280;48671;48.922;2.346;2023-02-16T14:56:53;102244.53;;;16.10;47.18
62600;BME280;48671;48.922;2.346;2023-02-16T15:01:55;102243.19;;;16.22;47.74
62600;BME280;48671;48.922;2.346;2023-02-16T15:04:32;102242.22;;;16.24;47.30
62600;BME280;48671;48.922;2.346;2023-02-16T15:07:03;102236.69;;;16.32;47.72
62600;BME280;48671;48.922;2.346;2023-02-16T15:09:31;102235.81;;;16.31;46.98
62600;BME280;48671;48.922;2.346;2023-02-16T15:12:07;102232.56;;;16.25;47.47
62600;BME280;48671;48.922;2.346;2023-02-16T15:15:00;102252.34;;;16.35;47.59
62600;BME280;48671;48.922;2.346;2023-02-16T15:20:06;102265.13;;;16.21;48.23
62600;BME280;48671;48.922;2.346;2023-02-16T15:22:32;102261.88;;;16.14;48.08
62600;BME280;48671;48.922;2.346;2023-02-16T15:25:04;102264.56;;;16.12;48.45
62600;BME280;48671;48.922;2.346;2023-02-16T15:27:32;102258.84;;;16.01;48.31
62600;BME280;48671;48.922;2.346;2023-02-16T15:30:20;102259.16;;;15.92;48.38
62600;BME280;48671;48.922;2.346;2023-02-16T15:32:55;102256.00;;;15.82;48.71
62600;BME280;48671;48.922;2.346;2023-02-16T15:35:28;102266.59;;;15.81;49.28
62600;BME280;48671;48.922;2.346;2023-02-16T15:38:08;102255.22;;;15.80;48.50
62600;BME280;48671;48.922;2.346;2023-02-16T15:40:43;102252.19;;;15.67;48.30
62600;BME280;48671;48.922;2.346;2023-02-16T15:43:24;102257.34;;;15.71;48.50
62600;BME280;48671;48.922;2.346;2023-02-16T15:45:52;102252.19;;;15.67;48.48
62600;BME280;48671;48.922;2.346;2023-02-16T15:48:24;102255.06;;;15.60;48.42
62600;BME280;48671;48.922;2.346;2023-02-16T15:51:05;102243.75;;;15.58;48.65
62600;BME280;48671;48.922;2.346;2023-02-16T15:58:56;102266.00;;;15.46;49.44
62600;BME280;48671;48.922;2.346;2023-02-16T16:01:28;102259.13;;;15.43;49.25
62600;BME280;48671;48.922;2.346;2023-02-16T16:03:59;102263.72;;;15.37;49.38
62600;BME280;48671;48.922;2.346;2023-02-16T16:06:31;102255.09;;;15.33;49.53
62600;BME280;48671;48.922;2.346;2023-02-16T16:08:57;102265.66;;;15.30;49.79
62600;BME280;48671;48.922;2.346;2023-02-16T16:11:23;102254.53;;;15.23;49.74
62600;BME280;48671;48.922;2.346;2023-02-16T16:13:49;102256.41;;;15.20;49.27
62600;BME280;48671;48.922;2.346;2023-02-16T16:16:15;102241.91;;;15.10;49.50
62600;BME280;48671;48.922;2.346;2023-02-16T16:21:26;102242.19;;;15.01;49.15
62600;BME280;48671;48.922;2.346;2023-02-16T16:26:20;102269.97;;;15.06;49.04
62600;BME280;48671;48.922;2.346;2023-02-16T16:28:46;102273.63;;;15.02;49.15
62600;BME280;48671;48.922;2.346;2023-02-16T16:34:02;102262.22;;;15.03;49.19
62600;BME280;48671;48.922;2.346;2023-02-16T16:36:37;102265.00;;;14.98;49.40
62600;BME280;48671;48.922;2.346;2023-02-16T16:41:43;102252.09;;;14.92;49.63
62600;BME280;48671;48.922;2.346;2023-02-16T16:46:55;102259.47;;;14.80;50.07
62600;BME280;48671;48.922;2.346;2023-02-16T16:49:20;102258.44;;;14.85;49.69
62600;BME280;48671;48.922;2.346;2023-02-16T16:51:50;102269.97;;;14.80;49.69
62600;BME280;48671;48.922;2.346;2023-02-16T16:54:33;102268.28;;;14.77;50.15
62600;BME280;48671;48.922;2.346;2023-02-16T16:57:14;102267.59;;;14.72;50.32
62600;BME280;48671;48.922;2.346;2023-02-16T16:59:39;102265.16;;;14.66;50.71
62600;BME280;48671;48.922;2.346;2023-02-16T17:02:05;102271.97;;;14.71;50.54
62600;BME280;48671;48.922;2.346;2023-02-16T17:04:30;102268.56;;;14.68;50.51
62600;BME280;48671;48.922;2.346;2023-02-16T17:06:55;102281.63;;;14.69;50.77
62600;BME280;48671;48.922;2.346;2023-02-16T17:09:20;102261.97;;;14.56;50.77
62600;BME280;48671;48.922;2.346;2023-02-16T17:11:46;102268.97;;;14.56;50.97
62600;BME280;48671;48.922;2.346;2023-02-16T17:14:16;102282.81;;;14.59;51.15
62600;BME280;48671;48.922;2.346;2023-02-16T17:16:44;102282.09;;;14.54;51.32
62600;BME280;48671;48.922;2.346;2023-02-16T17:19:12;102285.63;;;14.53;51.49
62600;BME280;48671;48.922;2.346;2023-02-16T17:21:38;102266.84;;;14.37;51.92
62600;BME280;48671;48.922;2.346;2023-02-16T17:24:03;102276.38;;;14.40;52.03
62600;BME280;48671;48.922;2.346;2023-02-16T17:26:31;102267.84;;;14.33;52.53
62600;BME280;48671;48.922;2.346;2023-02-16T17:28:56;102269.53;;;14.36;52.45
62600;BME280;48671;48.922;2.346;2023-02-16T17:31:22;102283.47;;;14.36;52.39
62600;BME280;48671;48.922;2.346;2023-02-16T17:33:47;102291.25;;;14.39;52.59
62600;BME280;48671;48.922;2.346;2023-02-16T17:36:13;102283.31;;;14.42;52.25
62600;BME280;48671;48.922;2.346;2023-02-16T17:38:39;102288.53;;;14.42;52.32
62600;BME280;48671;48.922;2.346;2023-02-16T17:41:05;102295.50;;;14.42;52.78
62600;BME280;48671;48.922;2.346;2023-02-16T17:43:30;102289.47;;;14.40;52.80
62600;BME280;48671;48.922;2.346;2023-02-16T17:45:56;102300.63;;;14.46;53.16
62600;BME280;48671;48.922;2.346;2023-02-16T17:48:29;102288.84;;;14.32;53.01
62600;BME280;48671;48.922;2.346;2023-02-16T17:50:58;102319.97;;;14.42;53.26
62600;BME280;48671;48.922;2.346;2023-02-16T17:53:25;102318.53;;;14.31;54.48
62600;BME280;48671;48.922;2.346;2023-02-16T17:55:53;102283.25;;;14.14;54.25
62600;BME280;48671;48.922;2.346;2023-02-16T17:58:21;102310.84;;;14.26;54.61
62600;BME280;48671;48.922;2.346;2023-02-16T18:00:46;102305.53;;;14.27;54.22
62600;BME280;48671;48.922;2.346;2023-02-16T18:03:12;102315.19;;;14.25;54.66
62600;BME280;48671;48.922;2.346;2023-02-16T18:05:38;102322.03;;;14.31;54.65
62600;BME280;48671;48.922;2.346;2023-02-16T18:08:04;102321.16;;;14.31;54.31
62600;BME280;48671;48.922;2.346;2023-02-16T18:10:36;102295.50;;;14.12;55.23
62600;BME280;48671;48.922;2.346;2023-02-16T18:13:04;102306.72;;;14.17;55.25
62600;BME280;48671;48.922;2.346;2023-02-16T18:15:29;102313.63;;;14.20;55.14
62600;BME280;48671;48.922;2.346;2023-02-16T18:17:55;102318.63;;;14.27;55.31
62600;BME280;48671;48.922;2.346;2023-02-16T18:20:21;102311.03;;;14.18;56.14
62600;BME280;48671;48.922;2.346;2023-02-16T18:22:46;102316.41;;;14.14;57.13
62600;BME280;48671;48.922;2.346;2023-02-16T18:25:12;102312.25;;;14.07;57.25
62600;BME280;48671;48.922;2.346;2023-02-16T18:27:39;102315.66;;;14.10;56.96
62600;BME280;48671;48.922;2.346;2023-02-16T18:30:06;102320.75;;;14.15;57.76
62600;BME280;48671;48.922;2.346;2023-02-16T18:32:35;102321.59;;;14.15;57.21
62600;BME280;48671;48.922;2.346;2023-02-16T18:35:06;102319.13;;;14.11;58.04
62600;BME280;48671;48.922;2.346;2023-02-16T18:37:31;102317.44;;;14.08;57.88
62600;BME280;48671;48.922;2.346;2023-02-16T18:39:57;102324.28;;;14.12;57.93
62600;BME280;48671;48.922;2.346;2023-02-16T18:42:22;102302.94;;;13.96;59.41
62600;BME280;48671;48.922;2.346;2023-02-16T18:44:48;102326.22;;;14.05;59.47
62600;BME280;48671;48.922;2.346;2023-02-16T18:47:15;102327.97;;;14.05;59.01
62600;BME280;48671;48.922;2.346;2023-02-16T18:49:40;102330.59;;;14.05;58.80
62600;BME280;48671;48.922;2.346;2023-02-16T18:52:07;102320.22;;;14.02;59.18
62600;BME280;48671;48.922;2.346;2023-02-16T18:54:32;102329.66;;;14.08;59.14
62600;BME280;48671;48.922;2.346;2023-02-16T18:56:58;102313.59;;;13.89;59.16
62600;BME280;48671;48.922;2.346;2023-02-16T18:59:24;102335.03;;;14.03;59.16
62600;BME280;48671;48.922;2.346;2023-02-16T19:01:57;102339.31;;;14.05;58.96
62600;BME280;48671;48.922;2.346;2023-02-16T19:04:23;102342.84;;;14.04;59.36
62600;BME280;48671;48.922;2.346;2023-02-16T19:06:49;102325.59;;;13.97;59.39
62600;BME280;48671;48.922;2.346;2023-02-16T19:09:14;102334.22;;;14.01;59.11
62600;BME280;48671;48.922;2.346;2023-02-16T19:11:40;102346.38;;;14.02;59.13
62600;BME280;48671;48.922;2.346;2023-02-16T19:14:05;102344.75;;;13.98;59.27
62600;BME280;48671;48.922;2.346;2023-02-16T19:16:30;102339.59;;;13.96;59.53
62600;BME280;48671;48.922;2.346;2023-02-16T19:18:56;102336.09;;;13.96;59.45
62600;BME280;48671;48.922;2.346;2023-02-16T19:21:21;102328.38;;;13.91;59.50
62600;BME280;48671;48.922;2.346;2023-02-16T19:23:47;102344.75;;;13.98;59.68
62600;BME280;48671;48.922;2.346;2023-02-16T19:26:14;102326.44;;;13.98;59.60
62600;BME280;48671;48.922;2.346;2023-02-16T19:28:41;102335.91;;;14.02;60.57
62600;BME280;48671;48.922;2.346;2023-02-16T19:31:13;102331.91;;;13.90;60.42
62600;BME280;48671;48.922;2.346;2023-02-16T19:33:39;102324.97;;;13.88;60.36